createdAt,value
2022-10-05T00:01:44.137Z,100661.33
2022-10-05T00:04:21.067Z,100662.70
2022-10-05T00:07:20.874Z,100658.61
2022-10-05T00:09:56.819Z,100658.58
2022-10-05T00:12:30.049Z,100657.73
2022-10-05T00:15:02.480Z,100662.17
2022-10-05T00:17:31.939Z,100666.81
2022-10-05T00:20:02.659Z,100683.75
2022-10-05T00:22:35.838Z,100682.83
2022-10-05T00:25:22.948Z,100674.05
2022-10-05T00:28:01.124Z,100676.08
2022-10-05T00:30:34.951Z,100670.66
2022-10-05T00:33:06.273Z,100667.15
2022-10-05T00:35:36.545Z,100659.88
2022-10-05T00:38:07.658Z,100661.41
2022-10-05T00:41:01.843Z,100660.21
2022-10-05T00:43:59.540Z,100672.35
2022-10-05T00:46:53.794Z,100676.34
2022-10-05T00:50:01.304Z,100671.41
2022-10-05T00:52:43.850Z,100670.90
2022-10-05T00:55:30.753Z,100663.06
2022-10-05T00:58:23.421Z,100663.23
2022-10-05T01:01:21.631Z,100653.13
2022-10-05T01:04:14.027Z,100651.27
2022-10-05T01:07:16.615Z,100644.00
2022-10-05T01:09:58.839Z,100633.45
2022-10-05T01:13:03.359Z,100634.05
2022-10-05T01:15:59.253Z,100633.20
2022-10-05T01:18:48.788Z,100621.73
2022-10-05T01:21:25.212Z,100624.48
2022-10-05T01:24:41.759Z,100632.58
2022-10-05T01:27:39.412Z,100635.64
2022-10-05T01:32:59.237Z,100607.92
2022-10-05T01:35:36.098Z,100608.77
2022-10-05T01:38:38.452Z,100607.42
2022-10-05T01:41:19.898Z,100609.31
2022-10-05T01:43:55.261Z,100616.15
2022-10-05T01:46:52.692Z,100625.31
2022-10-05T01:49:22.605Z,100620.42
2022-10-05T01:51:54.449Z,100618.23
2022-10-05T01:55:04.333Z,100620.80
2022-10-05T01:58:13.867Z,100616.02
2022-10-05T02:01:13.012Z,100617.66
2022-10-05T02:04:09.139Z,100616.00
2022-10-05T02:06:42.594Z,100616.14
2022-10-05T02:09:20.103Z,100614.52
2022-10-05T02:11:57.625Z,100613.52
2022-10-05T02:14:34.843Z,100618.45
2022-10-05T02:17:14.153Z,100619.74
2022-10-05T02:19:49.296Z,100618.33
2022-10-05T02:22:24.622Z,100611.86
2022-10-05T02:24:59.606Z,100611.41
2022-10-05T02:27:36.523Z,100619.34
2022-10-05T02:30:11.691Z,100619.30
2022-10-05T02:32:56.445Z,100615.62
2022-10-05T02:35:26.455Z,100606.53
2022-10-05T02:38:03.843Z,100601.24
2022-10-05T02:41:12.465Z,100594.85
2022-10-05T02:43:53.731Z,100590.48
2022-10-05T02:47:00.431Z,100587.10
2022-10-05T02:49:56.072Z,100585.64
2022-10-05T02:52:36.747Z,100586.86
2022-10-05T02:55:19.891Z,100582.71
2022-10-05T02:58:16.497Z,100586.30
2022-10-05T03:00:54.034Z,100584.38
2022-10-05T03:04:12.100Z,100576.48
2022-10-05T03:07:13.967Z,100567.79
2022-10-05T03:10:00.936Z,100570.43
2022-10-05T03:12:51.935Z,100577.83
2022-10-05T03:15:33.357Z,100586.64
2022-10-05T03:18:20.481Z,100591.48
2022-10-05T03:21:23.565Z,100594.66
2022-10-05T03:24:27.021Z,100596.14
2022-10-05T03:27:17.597Z,100604.29
2022-10-05T03:30:35.961Z,100603.70
2022-10-05T03:33:24.873Z,100605.73
2022-10-05T03:35:56.752Z,100604.56
2022-10-05T03:38:48.162Z,100607.14
2022-10-05T03:41:32.084Z,100604.50
2022-10-05T03:45:04.636Z,100605.11
2022-10-05T03:48:04.402Z,100594.09
2022-10-05T03:50:52.267Z,100597.98
2022-10-05T03:54:06.261Z,100596.27
2022-10-05T03:57:14.244Z,100591.67
2022-10-05T04:03:18.881Z,100578.48
2022-10-05T04:05:56.876Z,100577.42
2022-10-05T04:08:48.189Z,100569.79
2022-10-05T04:11:37.421Z,100563.36
2022-10-05T04:14:34.766Z,100563.63
2022-10-05T04:17:13.545Z,100553.47
2022-10-05T04:20:30.790Z,100549.50
2022-10-05T04:23:22.012Z,100545.45
2022-10-05T04:26:05.954Z,100545.88
2022-10-05T04:28:36.323Z,100549.34
2022-10-05T04:31:07.885Z,100559.92
2022-10-05T04:33:38.244Z,100562.45
2022-10-05T04:36:14.623Z,100554.19
2022-10-05T04:39:15.095Z,100547.81
2022-10-05T04:42:09.511Z,100545.88
2022-10-05T04:44:58.967Z,100548.25
2022-10-05T04:48:07.096Z,100538.77
2022-10-05T04:50:44.796Z,100545.21
2022-10-05T04:53:52.734Z,100548.45
2022-10-05T04:56:36.840Z,100547.77
2022-10-05T04:59:39.643Z,100550.58
2022-10-05T05:02:46.605Z,100546.94
2022-10-05T05:05:58.615Z,100550.21
2022-10-05T05:08:49.388Z,100549.27
2022-10-05T05:11:47.610Z,100552.19
2022-10-05T05:14:24.137Z,100544.09
2022-10-05T05:17:21.090Z,100543.68
2022-10-05T05:19:59.211Z,100540.22
2022-10-05T05:23:47.441Z,100539.52
2022-10-05T05:26:34.541Z,100538.36
2022-10-05T05:29:47.833Z,100540.75
2022-10-05T05:32:56.882Z,100543.95
2022-10-05T05:35:36.603Z,100548.13
2022-10-05T05:58:27.041Z,100558.98
2022-10-05T06:01:32.320Z,100563.94
2022-10-05T06:04:28.872Z,100564.95
2022-10-05T06:07:05.367Z,100565.89
2022-10-05T06:09:54.752Z,100565.92
2022-10-05T06:12:39.598Z,100568.85
2022-10-05T06:15:39.842Z,100571.42
2022-10-05T06:18:15.577Z,100567.04
2022-10-05T06:20:54.496Z,100557.33
2022-10-05T06:23:35.094Z,100543.17
2022-10-05T06:26:31.377Z,100533.02
2022-10-05T06:29:18.399Z,100529.29
2022-10-05T06:32:29.257Z,100529.58
2022-10-05T06:35:20.303Z,100526.73
2022-10-05T06:38:25.193Z,100523.94
2022-10-05T06:41:22.043Z,100520.27
2022-10-05T06:44:00.250Z,100522.91
2022-10-05T06:47:25.363Z,100520.52
2022-10-05T06:50:32.145Z,100521.04
2022-10-05T06:53:46.954Z,100533.00
2022-10-05T06:56:38.122Z,100537.66
2022-10-05T06:59:20.174Z,100541.54
2022-10-05T07:02:06.017Z,100543.44
2022-10-05T07:05:04.876Z,100548.42
2022-10-05T07:07:46.375Z,100538.89
2022-10-05T07:10:33.360Z,100535.97
2022-10-05T07:13:38.771Z,100533.27
2022-10-05T07:16:16.935Z,100539.24
2022-10-05T07:19:19.443Z,100545.58
2022-10-05T07:22:38.612Z,100561.00
2022-10-05T07:25:29.295Z,100543.63
2022-10-05T07:28:11.708Z,100498.64
2022-10-05T07:31:08.229Z,100474.83
2022-10-05T07:33:56.140Z,100489.31
2022-10-05T07:37:33.079Z,100496.38
2022-10-05T07:40:36.260Z,100502.98
2022-10-05T07:43:16.575Z,100506.29
2022-10-05T07:46:03.258Z,100493.67
2022-10-05T07:48:50.801Z,100499.34
2022-10-05T07:51:33.759Z,100496.95
2022-10-05T07:54:18.087Z,100499.15
2022-10-05T07:57:11.916Z,100493.12
2022-10-05T07:59:54.714Z,100482.67
2022-10-05T08:02:44.826Z,100480.03
2022-10-05T08:05:42.200Z,100467.13
2022-10-05T08:08:13.291Z,100455.75
2022-10-05T08:10:55.759Z,100468.93
2022-10-05T08:19:50.956Z,100501.91
2022-10-05T08:22:36.859Z,100509.37
2022-10-05T08:25:13.528Z,100507.84
2022-10-05T08:28:11.088Z,100512.42
2022-10-05T08:31:02.413Z,100510.98
2022-10-05T08:33:43.906Z,100503.56
2022-10-05T08:36:17.077Z,100483.54
2022-10-05T08:38:47.285Z,100480.34
2022-10-05T08:41:53.188Z,100481.94
2022-10-05T08:45:01.602Z,100486.61
2022-10-05T08:48:11.770Z,100462.97
2022-10-05T08:50:56.839Z,100477.05
2022-10-05T08:53:49.471Z,100479.65
2022-10-05T08:57:07.838Z,100477.09
2022-10-05T09:00:03.319Z,100468.99
2022-10-05T09:06:22.589Z,100485.17
2022-10-05T09:09:15.497Z,100472.98
2022-10-05T09:12:20.391Z,100473.46
2022-10-05T09:15:41.209Z,100472.78
2022-10-05T09:18:28.720Z,100481.56
2022-10-05T09:24:51.389Z,100477.98
2022-10-05T09:27:32.716Z,100473.52
2022-10-05T09:30:41.341Z,100478.16
2022-10-05T09:33:55.231Z,100470.94
2022-10-05T09:37:07.378Z,100470.52
2022-10-05T09:39:37.502Z,100467.91
2022-10-05T09:42:28.484Z,100469.45
2022-10-05T09:45:23.651Z,100468.33
2022-10-05T09:48:53.894Z,100473.79
2022-10-05T09:52:04.501Z,100482.00
2022-10-05T09:54:47.474Z,100479.90
2022-10-05T09:58:03.902Z,100479.29
2022-10-05T10:00:54.237Z,100478.06
2022-10-05T10:04:11.896Z,100476.70
2022-10-05T10:07:04.006Z,100474.84
2022-10-05T10:10:31.364Z,100477.76
2022-10-05T10:13:30.498Z,100476.70
2022-10-05T10:16:37.968Z,100476.78
2022-10-05T10:19:29.871Z,100472.17
2022-10-05T10:22:42.952Z,100470.84
2022-10-05T10:25:32.808Z,100460.94
2022-10-05T10:28:32.039Z,100460.83
2022-10-05T10:31:22.454Z,100457.31
2022-10-05T10:34:21.283Z,100457.70
2022-10-05T10:37:32.234Z,100457.66
2022-10-05T10:40:37.645Z,100462.31
2022-10-05T10:43:27.423Z,100457.72
2022-10-05T10:46:06.958Z,100455.84
2022-10-05T10:49:16.165Z,100455.20
2022-10-05T10:52:19.281Z,100454.27
2022-10-05T10:55:11.732Z,100452.56
2022-10-05T10:57:56.506Z,100457.96
2022-10-05T11:00:46.030Z,100459.90
2022-10-05T11:04:08.832Z,100467.30
2022-10-05T11:07:32.102Z,100467.34
2022-10-05T11:10:26.450Z,100473.05
2022-10-05T11:13:37.927Z,100474.34
2022-10-05T11:16:58.845Z,100467.69
2022-10-05T11:23:40.065Z,100468.26
2022-10-05T11:33:18.140Z,100475.63
2022-10-05T11:36:18.107Z,100473.34
2022-10-05T11:39:40.748Z,100476.64
2022-10-05T11:42:46.501Z,100477.13
2022-10-05T11:55:09.224Z,100473.31
2022-10-05T11:57:43.282Z,100471.65
2022-10-05T12:00:18.540Z,100469.02
2022-10-05T12:03:21.901Z,100459.17
2022-10-05T12:06:31.257Z,100442.77
2022-10-05T12:09:19.120Z,100442.86
2022-10-05T12:12:06.419Z,100434.86
2022-10-05T12:14:39.915Z,100426.59
2022-10-05T12:17:21.598Z,100427.52
2022-10-05T12:20:00.731Z,100430.70
2022-10-05T12:23:20.391Z,100422.67
2022-10-05T12:26:04.437Z,100422.36
2022-10-05T12:28:58.808Z,100417.23
2022-10-05T12:31:57.270Z,100422.73
2022-10-05T12:34:59.001Z,100431.08
2022-10-05T12:37:54.759Z,100431.73
2022-10-05T12:40:52.736Z,100429.59
2022-10-05T12:43:48.550Z,100428.24
2022-10-05T12:46:45.261Z,100427.36
2022-10-05T12:49:38.209Z,100428.86
2022-10-05T12:52:33.968Z,100421.70
2022-10-05T12:55:07.909Z,100411.81
2022-10-05T12:58:05.847Z,100414.35
2022-10-05T13:00:39.895Z,100416.77
2022-10-05T13:03:39.123Z,100420.79
2022-10-05T13:06:26.860Z,100422.80
2022-10-05T13:09:10.597Z,100422.84
2022-10-05T13:11:48.359Z,100426.86
2022-10-05T13:14:57.806Z,100437.48
2022-10-05T13:17:43.838Z,100433.57
2022-10-05T13:20:21.513Z,100431.21
2022-10-05T13:23:35.283Z,100421.93
2022-10-05T13:26:18.905Z,100412.90
2022-10-05T13:29:14.060Z,100421.46
2022-10-05T13:31:54.723Z,100416.69
2022-10-05T13:34:30.507Z,100415.42
2022-10-05T13:37:02.699Z,100416.38
2022-10-05T13:40:00.563Z,100407.39
2022-10-05T13:42:48.908Z,100398.58
2022-10-05T13:45:43.321Z,100390.82
2022-10-05T13:48:41.061Z,100385.62
2022-10-05T13:51:27.484Z,100379.52
2022-10-05T13:54:09.818Z,100374.63
2022-10-05T13:56:45.264Z,100375.42
2022-10-05T13:59:37.603Z,100372.83
2022-10-05T14:02:11.309Z,100370.59
2022-10-05T14:04:52.306Z,100374.42
2022-10-05T14:07:40.244Z,100378.23
2022-10-05T14:10:15.370Z,100377.70
2022-10-05T14:12:46.225Z,100379.39
2022-10-05T14:15:30.418Z,100376.95
2022-10-05T14:18:00.849Z,100378.52
2022-10-05T14:20:34.773Z,100380.84
2022-10-05T14:23:11.585Z,100383.97
2022-10-05T14:25:54.274Z,100391.45
2022-10-05T14:28:28.780Z,100390.99
2022-10-05T14:31:05.892Z,100388.02
2022-10-05T14:33:41.107Z,100394.60
2022-10-05T14:36:37.459Z,100393.80
2022-10-05T14:39:13.285Z,100389.35
2022-10-05T14:41:52.536Z,100388.12
2022-10-05T14:44:28.088Z,100386.91
2022-10-05T14:47:12.872Z,100389.29
2022-10-05T14:50:14.714Z,100384.51
2022-10-05T14:53:04.713Z,100373.83
2022-10-05T14:56:17.633Z,100369.52
2022-10-05T14:59:09.851Z,100370.80
2022-10-05T15:02:02.273Z,100370.68
2022-10-05T15:04:50.354Z,100363.98
2022-10-05T15:07:40.096Z,100365.71
2022-10-05T15:10:27.231Z,100367.30
2022-10-05T15:13:11.229Z,100364.90
2022-10-05T15:16:06.169Z,100363.24
2022-10-05T15:18:51.820Z,100366.30
2022-10-05T15:21:25.166Z,100369.37
2022-10-05T15:24:03.964Z,100375.19
2022-10-05T15:26:35.642Z,100366.75
2022-10-05T15:29:29.894Z,100360.41
2022-10-05T15:32:15.188Z,100361.36
2022-10-05T15:34:53.339Z,100357.68
2022-10-05T15:37:52.057Z,100360.27
2022-10-05T15:40:30.679Z,100360.52
2022-10-05T15:43:11.024Z,100361.30
2022-10-05T15:46:04.393Z,100359.52
2022-10-05T15:49:01.043Z,100356.22
2022-10-05T15:51:37.526Z,100357.04
2022-10-05T15:54:40.741Z,100353.37
2022-10-05T15:57:36.888Z,100352.23
2022-10-05T16:00:16.399Z,100344.89
2022-10-05T16:03:24.155Z,100342.23
2022-10-05T16:06:21.636Z,100348.55
2022-10-05T16:09:12.366Z,100355.19
2022-10-05T16:11:55.707Z,100354.31
2022-10-05T16:14:39.585Z,100353.91
2022-10-05T16:17:39.584Z,100353.50
2022-10-05T16:20:36.122Z,100346.80
2022-10-05T16:23:25.153Z,100346.14
2022-10-05T16:26:02.122Z,100344.63
2022-10-05T16:28:50.228Z,100346.04
2022-10-05T16:31:21.752Z,100347.12
2022-10-05T16:34:25.368Z,100346.63
2022-10-05T16:37:29.413Z,100347.98
2022-10-05T16:40:02.564Z,100351.06
2022-10-05T16:42:48.133Z,100351.32
2022-10-05T16:45:28.648Z,100356.05
2022-10-05T16:48:29.577Z,100358.14
2022-10-05T16:51:47.883Z,100357.45
2022-10-05T16:54:24.556Z,100357.25
2022-10-05T16:57:06.253Z,100356.34
2022-10-05T17:00:09.889Z,100351.96
2022-10-05T17:03:04.723Z,100354.67
2022-10-05T17:05:56.413Z,100353.19
2022-10-05T17:09:13.028Z,100355.90
2022-10-05T17:15:29.710Z,100353.86
2022-10-05T17:18:20.106Z,100353.00
2022-10-05T17:21:42.628Z,100348.42
2022-10-05T17:24:34.357Z,100353.85
2022-10-05T17:27:19.868Z,100351.77
2022-10-05T17:29:56.579Z,100349.58
2022-10-05T17:32:36.556Z,100344.33
2022-10-05T17:35:41.116Z,100342.58
2022-10-05T17:38:20.645Z,100336.27
2022-10-05T17:41:33.348Z,100333.62
2022-10-05T17:47:15.825Z,100326.97
2022-10-05T17:50:19.477Z,100327.67
2022-10-05T17:54:03.509Z,100326.17
2022-10-05T17:56:51.013Z,100326.78
2022-10-05T17:59:44.968Z,100324.24
2022-10-05T18:02:19.914Z,100319.02
2022-10-05T18:05:02.886Z,100320.98
2022-10-05T18:07:34.974Z,100319.82
2022-10-05T18:10:13.235Z,100319.14
2022-10-05T18:12:45.698Z,100320.42
2022-10-05T18:15:36.790Z,100319.38
2022-10-05T18:18:33.183Z,100320.34
2022-10-05T18:21:14.428Z,100321.25
2022-10-05T18:24:35.982Z,100319.09
2022-10-05T18:28:06.181Z,100318.83
2022-10-05T18:31:11.785Z,100322.04
2022-10-05T18:34:26.060Z,100318.95
2022-10-05T18:37:15.871Z,100318.34
2022-10-05T18:40:34.983Z,100315.08
2022-10-05T18:43:41.914Z,100316.16
2022-10-05T18:46:29.671Z,100314.85
2022-10-05T18:49:11.493Z,100317.40
2022-10-05T18:52:05.647Z,100318.00
2022-10-05T18:55:14.377Z,100314.79
2022-10-05T18:58:16.456Z,100313.68
2022-10-05T19:01:40.463Z,100311.36
2022-10-05T19:04:18.035Z,100305.39
2022-10-05T19:07:16.943Z,100305.39
2022-10-05T19:10:15.267Z,100306.67
2022-10-05T19:13:14.180Z,100303.95
2022-10-05T19:16:14.056Z,100302.68
2022-10-05T19:19:29.356Z,100303.06
2022-10-05T19:22:38.135Z,100305.86
2022-10-05T19:25:33.992Z,100304.60
2022-10-05T19:28:27.280Z,100305.88
2022-10-05T19:31:24.175Z,100307.45
2022-10-05T19:34:23.025Z,100308.11
2022-10-05T19:37:31.492Z,100306.22
2022-10-05T19:40:26.837Z,100310.11
2022-10-05T19:43:24.146Z,100310.52
2022-10-05T19:46:41.993Z,100310.64
2022-10-05T19:49:12.058Z,100307.36
2022-10-05T19:51:51.338Z,100308.65
2022-10-05T19:54:30.437Z,100310.61
2022-10-05T19:57:03.216Z,100310.70
2022-10-05T19:59:35.093Z,100313.33
2022-10-05T20:02:06.960Z,100317.41
2022-10-05T20:04:42.178Z,100316.36
2022-10-05T20:07:18.894Z,100319.37
2022-10-05T20:10:01.357Z,100320.45
2022-10-05T20:13:09.467Z,100320.88
2022-10-05T20:15:57.519Z,100322.26
2022-10-05T20:19:42.094Z,100323.70
2022-10-05T20:26:59.206Z,100330.80
2022-10-05T20:29:40.128Z,100333.58
2022-10-05T20:32:20.847Z,100339.70
2022-10-05T20:34:51.543Z,100344.41
2022-10-05T20:37:22.026Z,100343.48
2022-10-05T20:39:53.075Z,100346.82
2022-10-05T20:42:24.267Z,100351.90
2022-10-05T20:44:56.854Z,100352.42
2022-10-05T20:47:28.084Z,100353.15
2022-10-05T20:49:58.358Z,100348.89
2022-10-05T20:52:29.811Z,100350.85
2022-10-05T20:55:02.276Z,100346.16
2022-10-05T20:57:33.959Z,100348.19
2022-10-05T21:00:04.568Z,100348.55
2022-10-05T21:02:35.086Z,100348.27
2022-10-05T21:05:04.972Z,100350.13
2022-10-05T21:07:36.115Z,100349.10
2022-10-05T21:10:06.525Z,100347.42
2022-10-05T21:12:37.129Z,100348.19
2022-10-05T21:15:08.078Z,100346.19
2022-10-05T21:17:38.446Z,100345.09
2022-10-05T21:20:11.589Z,100341.63
2022-10-05T21:27:26.860Z,100345.98
2022-10-05T21:30:00.722Z,100347.12
2022-10-05T21:32:31.370Z,100346.50
2022-10-05T21:35:02.865Z,100343.84
2022-10-05T21:37:33.254Z,100344.95
2022-10-05T21:40:05.719Z,100341.32
2022-10-05T21:42:35.076Z,100344.52
2022-10-05T21:45:06.499Z,100346.60
2022-10-05T21:47:35.515Z,100346.19
2022-10-05T21:50:09.072Z,100351.17
2022-10-05T21:52:38.618Z,100351.95
2022-10-05T21:55:09.010Z,100351.05
2022-10-05T21:57:39.182Z,100354.30
2022-10-05T22:00:11.474Z,100349.92
2022-10-05T22:02:40.425Z,100345.16
2022-10-05T22:05:10.969Z,100348.71
2022-10-05T22:07:46.587Z,100345.96
2022-10-05T22:10:17.843Z,100346.54
2022-10-05T22:12:47.668Z,100350.14
2022-10-05T22:15:18.104Z,100347.94
2022-10-05T22:17:47.073Z,100352.06
2022-10-05T22:20:20.611Z,100349.56
2022-10-05T22:22:52.785Z,100345.39
2022-10-05T22:25:23.358Z,100343.90
2022-10-05T22:27:52.493Z,100346.91
2022-10-05T22:30:22.244Z,100345.40
2022-10-05T22:32:54.495Z,100346.80
2022-10-05T22:35:24.680Z,100341.26
2022-10-05T22:37:55.269Z,100337.89
2022-10-05T22:40:25.654Z,100346.66
2022-10-05T22:42:58.484Z,100342.41
2022-10-05T22:45:32.315Z,100343.84
2022-10-05T22:48:04.260Z,100334.42
2022-10-05T22:50:34.578Z,100341.20
2022-10-05T22:53:04.904Z,100338.64
2022-10-05T22:55:35.832Z,100338.76
2022-10-05T22:58:06.007Z,100342.34
2022-10-05T23:00:57.059Z,100345.44
2022-10-05T23:03:26.026Z,100345.84
2022-10-05T23:06:03.418Z,100347.67
2022-10-05T23:08:35.905Z,100346.48
2022-10-05T23:11:11.661Z,100349.94
2022-10-05T23:13:46.378Z,100351.32
2022-10-05T23:16:19.324Z,100351.33
2022-10-05T23:18:50.771Z,100348.13
2022-10-05T23:21:23.745Z,100351.95
2022-10-05T23:23:52.852Z,100353.54
2022-10-05T23:26:25.253Z,100355.64
2022-10-05T23:28:54.781Z,100357.00
2022-10-05T23:31:26.740Z,100356.88
2022-10-05T23:33:56.616Z,100359.30
2022-10-05T23:36:32.529Z,100359.02
2022-10-05T23:39:01.946Z,100356.44
2022-10-05T23:41:32.543Z,100362.03
2022-10-05T23:44:04.853Z,100359.11
2022-10-05T23:46:37.138Z,100359.73
2022-10-05T23:49:06.570Z,100359.41
2022-10-05T23:51:36.095Z,100357.09
2022-10-05T23:54:08.014Z,100357.19
2022-10-05T23:56:36.777Z,100350.36
2022-10-05T23:59:09.614Z,100356.25
